Time;durP1;ratioP1;P1;durP2;ratioP2;P2;SDS_P1;SDS_P2;PMS_P1;PMS_P2;Temp;Humidity;BMP_temperature;BMP_pressure;BME280_temperature;BME280_humidity;BME280_pressure;Samples;Min_cycle;Max_cycle;Signal;HPM_P1;HPM_P2
2022/10/05 00:00:00;;;;;;;2.17;1.70;;;;;;;;;;4494555;28;20026;-59
2022/10/05 00:02:18;;;;;;;2.50;1.70;;;;;;;;;;4494137;28;20045;-59
2022/10/05 00:04:31;;;;;;;2.53;1.70;;;;;;;;;;4494636;28;20571;-60
2022/10/05 00:07:02;;;;;;;1.85;1.60;;;;;;;;;;4492047;28;20046;-59
2022/10/05 00:09:20;;;;;;;2.25;1.73;;;;;;;;;;4469893;28;20639;-59
2022/10/05 00:11:30;;;;;;;2.30;1.50;;;;;;;;;;4475606;28;20042;-59
2022/10/05 00:13:41;;;;;;;1.65;1.55;;;;;;;;;;4493873;28;37962;-59
2022/10/05 00:16:06;;;;;;;1.98;1.70;;;;;;;;;;4494027;28;20042;-60
2022/10/05 00:18:20;;;;;;;2.10;1.70;;;;;;;;;;4493099;28;20132;-59
2022/10/05 00:20:30;;;;;;;2.03;1.77;;;;;;;;;;4482073;28;20042;-59
2022/10/05 00:22:41;;;;;;;2.80;1.80;;;;;;;;;;4493146;28;20078;-59
2022/10/05 00:24:55;;;;;;;1.98;1.60;;;;;;;;;;4495007;28;39487;-59
2022/10/05 00:27:19;;;;;;;2.05;1.55;;;;;;;;;;4475954;28;20043;-59
2022/10/05 00:29:29;;;;;;;2.15;1.60;;;;;;;;;;4485837;28;20911;-60
2022/10/05 00:31:41;;;;;;;2.38;1.55;;;;;;;;;;4483079;28;20107;-59
2022/10/05 00:33:53;;;;;;;2.20;1.60;;;;;;;;;;4493720;28;29099;-59
2022/10/05 00:36:05;;;;;;;1.73;1.60;;;;;;;;;;4493121;28;20041;-60
2022/10/05 00:38:16;;;;;;;2.60;1.67;;;;;;;;;;4475534;28;20530;-60
2022/10/05 00:40:41;;;;;;;1.80;1.60;;;;;;;;;;4469588;28;20405;-60
2022/10/05 00:43:04;;;;;;;1.70;1.55;;;;;;;;;;4480476;28;20026;-60
2022/10/05 00:45:19;;;;;;;1.83;1.70;;;;;;;;;;4493499;28;21034;-60
2022/10/05 00:48:00;;;;;;;2.30;1.48;;;;;;;;;;4468892;28;20544;-60
2022/10/05 00:50:26;;;;;;;2.20;1.70;;;;;;;;;;4484613;28;20049;-60
2022/10/05 00:52:47;;;;;;;2.65;1.73;;;;;;;;;;4484787;28;20558;-60
2022/10/05 00:55:07;;;;;;;2.47;1.92;;;;;;;;;;4481991;28;20041;-60
2022/10/05 00:57:24;;;;;;;1.77;1.50;;;;;;;;;;4461625;28;20142;-60
2022/10/05 00:59:38;;;;;;;2.05;1.77;;;;;;;;;;4479533;28;20035;-60
2022/10/05 01:02:02;;;;;;;1.80;1.50;;;;;;;;;;4475651;28;20043;-60
2022/10/05 01:04:34;;;;;;;2.08;1.80;;;;;;;;;;4462603;28;20035;-60
2022/10/05 01:07:02;;;;;;;1.90;1.70;;;;;;;;;;4477186;28;20658;-60
2022/10/05 01:09:15;;;;;;;2.10;1.60;;;;;;;;;;4478383;28;20306;-60
2022/10/05 01:11:43;;;;;;;1.60;1.50;;;;;;;;;;4493187;28;20612;-60
2022/10/05 01:14:19;;;;;;;2.33;1.85;;;;;;;;;;4492505;28;20034;-60
2022/10/05 01:16:44;;;;;;;2.17;1.70;;;;;;;;;;4474605;28;20070;-60
2022/10/05 01:19:06;;;;;;;2.20;1.85;;;;;;;;;;4461730;28;20057;-60
2022/10/05 01:21:20;;;;;;;1.70;1.40;;;;;;;;;;4485454;28;20030;-60
2022/10/05 01:23:39;;;;;;;2.13;1.52;;;;;;;;;;4476371;28;20166;-60
2022/10/05 01:26:06;;;;;;;2.25;1.63;;;;;;;;;;4480855;28;20038;-60
2022/10/05 01:28:27;;;;;;;1.85;1.65;;;;;;;;;;4477699;28;20593;-60
2022/10/05 01:31:03;;;;;;;2.20;1.70;;;;;;;;;;4475245;28;20126;-60
2022/10/05 01:33:33;;;;;;;2.08;1.60;;;;;;;;;;4491245;28;20048;-60
2022/10/05 01:36:13;;;;;;;2.05;1.70;;;;;;;;;;4481274;28;20121;-60
2022/10/05 01:38:41;;;;;;;1.73;1.60;;;;;;;;;;4482021;28;20058;-60
2022/10/05 01:41:01;;;;;;;2.10;1.80;;;;;;;;;;4477252;28;20065;-60
2022/10/05 01:43:23;;;;;;;2.20;1.77;;;;;;;;;;4474516;28;20739;-60
2022/10/05 01:45:57;;;;;;;1.73;1.60;;;;;;;;;;4474850;28;20408;-60
2022/10/05 01:48:14;;;;;;;2.45;1.65;;;;;;;;;;4492268;28;20053;-60
2022/10/05 01:50:27;;;;;;;;;;;;;;;;;;4484564;28;20038;-60
2022/10/05 01:52:52;;;;;;;1.90;1.65;;;;;;;;;;4491298;28;20466;-60
2022/10/05 01:55:31;;;;;;;2.70;1.80;;;;;;;;;;4475637;28;20114;-60
2022/10/05 01:57:44;;;;;;;2.35;1.70;;;;;;;;;;4479050;28;20226;-59
2022/10/05 02:00:06;;;;;;;2.55;1.80;;;;;;;;;;4469118;28;20035;-60
2022/10/05 02:02:27;;;;;;;2.58;1.90;;;;;;;;;;4489595;28;20047;-60
2022/10/05 02:04:52;;;;;;;2.80;1.77;;;;;;;;;;4476713;28;20034;-61
2022/10/05 02:07:07;;;;;;;1.90;1.70;;;;;;;;;;4474270;28;20035;-60
2022/10/05 02:09:25;;;;;;;2.58;2.00;;;;;;;;;;4473706;28;20047;-60
2022/10/05 02:11:36;;;;;;;2.05;1.67;;;;;;;;;;4476371;28;20050;-59
2022/10/05 02:14:05;;;;;;;2.50;2.00;;;;;;;;;;4477324;28;20039;-60
2022/10/05 02:16:26;;;;;;;2.28;1.83;;;;;;;;;;4491834;28;20074;-60
2022/10/05 02:18:41;;;;;;;2.30;1.77;;;;;;;;;;4483571;28;20657;-60
2022/10/05 02:20:54;;;;;;;2.17;1.70;;;;;;;;;;4475259;28;20586;-60
2022/10/05 02:23:11;;;;;;;2.10;1.83;;;;;;;;;;4480089;28;20041;-60
2022/10/05 02:25:22;;;;;;;;;;;;;;;;;;4469692;28;20856;-60
2022/10/05 02:27:36;;;;;;;2.53;2.05;;;;;;;;;;4466862;28;19922;-60
2022/10/05 02:29:47;;;;;;;2.10;1.52;;;;;;;;;;4483402;28;20146;-60
2022/10/05 02:32:10;;;;;;;2.33;1.60;;;;;;;;;;4484100;28;20034;-60
2022/10/05 02:34:27;;;;;;;3.05;2.03;;;;;;;;;;4467720;28;20070;-60
2022/10/05 02:36:45;;;;;;;2.08;1.63;;;;;;;;;;4468147;28;20038;-60
2022/10/05 02:39:13;;;;;;;2.72;1.80;;;;;;;;;;4484223;28;20034;-60
2022/10/05 02:41:44;;;;;;;2.40;1.80;;;;;;;;;;4479996;28;20074;-60
2022/10/05 02:44:14;;;;;;;2.05;1.70;;;;;;;;;;4473032;28;20049;-60
2022/10/05 02:46:45;;;;;;;2.45;1.75;;;;;;;;;;4482244;28;20046;-60
2022/10/05 02:49:19;;;;;;;2.15;1.80;;;;;;;;;;4475752;28;20169;-59
2022/10/05 02:51:43;;;;;;;2.47;1.95;;;;;;;;;;4477250;28;20042;-60
2022/10/05 02:54:02;;;;;;;2.22;1.48;;;;;;;;;;4480314;28;20138;-60
2022/10/05 02:56:47;;;;;;;2.30;1.80;;;;;;;;;;4483919;28;21472;-60
2022/10/05 02:59:06;;;;;;;2.00;1.60;;;;;;;;;;4477680;28;20041;-60
2022/10/05 03:01:31;;;;;;;2.72;1.88;;;;;;;;;;4474904;28;20121;-60
2022/10/05 03:04:23;;;;;;;2.83;2.00;;;;;;;;;;4483361;28;20041;-60
2022/10/05 03:06:38;;;;;;;2.47;1.85;;;;;;;;;;4465827;28;20035;-60
2022/10/05 03:09:00;;;;;;;2.20;1.90;;;;;;;;;;4466920;28;21502;-60
2022/10/05 03:11:25;;;;;;;1.88;1.60;;;;;;;;;;4493438;28;20054;-60
2022/10/05 03:13:54;;;;;;;2.45;1.90;;;;;;;;;;4476399;28;20122;-60
2022/10/05 03:16:18;;;;;;;1.88;1.60;;;;;;;;;;4473216;28;20039;-60
2022/10/05 03:18:54;;;;;;;2.35;1.73;;;;;;;;;;4459846;28;20079;-60
2022/10/05 03:21:37;;;;;;;2.22;1.75;;;;;;;;;;4476446;28;21268;-60
2022/10/05 03:24:08;;;;;;;2.28;1.70;;;;;;;;;;4475014;28;20541;-60
2022/10/05 03:26:26;;;;;;;2.88;1.77;;;;;;;;;;4482998;28;20129;-60
2022/10/05 03:28:48;;;;;;;1.85;1.60;;;;;;;;;;4473672;28;20051;-60
2022/10/05 03:31:02;;;;;;;2.63;1.70;;;;;;;;;;4476630;28;20486;-60
2022/10/05 03:33:27;;;;;;;3.67;1.83;;;;;;;;;;4474308;28;20159;-60
2022/10/05 03:35:50;;;;;;;1.75;1.65;;;;;;;;;;4458692;28;20277;-61
2022/10/05 03:38:16;;;;;;;2.33;1.70;;;;;;;;;;4465985;28;20587;-60
2022/10/05 03:40:37;;;;;;;2.20;1.85;;;;;;;;;;4491149;28;20042;-60
2022/10/05 03:43:05;;;;;;;1.98;1.67;;;;;;;;;;4457527;28;20672;-60
2022/10/05 03:45:25;;;;;;;2.20;1.73;;;;;;;;;;4468502;28;20038;-60
2022/10/05 03:47:55;;;;;;;2.95;1.90;;;;;;;;;;4457436;28;20175;-60
2022/10/05 03:50:23;;;;;;;2.08;1.65;;;;;;;;;;4477819;28;20038;-60
2022/10/05 03:52:50;;;;;;;2.65;1.67;;;;;;;;;;4482692;28;20460;-60
2022/10/05 03:55:25;;;;;;;2.80;1.90;;;;;;;;;;4483878;28;20035;-60
2022/10/05 03:57:37;;;;;;;1.80;1.65;;;;;;;;;;4467370;28;20042;-60
2022/10/05 04:00:15;;;;;;;2.42;1.90;;;;;;;;;;4477961;28;20043;-60
2022/10/05 04:02:39;;;;;;;1.88;1.60;;;;;;;;;;4456248;28;20050;-60
2022/10/05 04:04:55;;;;;;;2.15;1.58;;;;;;;;;;4482659;28;20568;-60
2022/10/05 04:07:14;;;;;;;2.65;1.77;;;;;;;;;;4461485;28;20576;-61
2022/10/05 04:09:27;;;;;;;1.98;1.77;;;;;;;;;;4466601;28;20043;-60
2022/10/05 04:12:19;;;;;;;2.22;1.67;;;;;;;;;;4481394;28;20038;-60
2022/10/05 04:14:39;;;;;;;2.35;1.73;;;;;;;;;;4481703;28;20070;-60
2022/10/05 04:16:57;;;;;;;2.53;2.00;;;;;;;;;;4465999;28;20663;-60
2022/10/05 04:19:24;;;;;;;1.80;1.60;;;;;;;;;;4471417;28;20035;-60
2022/10/05 04:21:48;;;;;;;2.33;1.80;;;;;;;;;;4481983;28;20569;-60
2022/10/05 04:24:28;;;;;;;2.78;1.90;;;;;;;;;;4479659;28;20643;-60
2022/10/05 04:26:48;;;;;;;1.77;1.60;;;;;;;;;;4459674;28;20800;-60
2022/10/05 04:29:06;;;;;;;1.77;1.50;;;;;;;;;;4466668;28;21107;-60
2022/10/05 04:31:51;;;;;;;2.20;1.80;;;;;;;;;;4482748;28;20224;-60
2022/10/05 04:34:47;;;;;;;1.92;1.73;;;;;;;;;;4480404;28;20046;-60
2022/10/05 04:37:02;;;;;;;2.35;1.70;;;;;;;;;;4435558;28;20061;-60
2022/10/05 04:39:50;;;;;;;2.10;1.73;;;;;;;;;;4452884;28;20031;-60
2022/10/05 04:42:31;;;;;;;1.73;1.63;;;;;;;;;;4469437;28;20046;-60
2022/10/05 04:44:51;;;;;;;2.53;1.90;;;;;;;;;;4494097;28;20046;-60
2022/10/05 04:47:20;;;;;;;1.92;1.67;;;;;;;;;;4491044;28;20371;-61
2022/10/05 04:49:50;;;;;;;2.47;1.83;;;;;;;;;;4461812;28;20063;-60
2022/10/05 04:52:24;;;;;;;2.67;1.80;;;;;;;;;;4461924;28;20482;-60
2022/10/05 04:54:43;;;;;;;2.55;1.60;;;;;;;;;;4481618;28;20031;-60
2022/10/05 04:57:07;;;;;;;1.73;1.50;;;;;;;;;;4475084;28;20150;-60
2022/10/05 04:59:36;;;;;;;2.45;1.80;;;;;;;;;;4468635;28;20045;-60
2022/10/05 05:02:19;;;;;;;2.15;1.67;;;;;;;;;;4480279;28;20038;-60
2022/10/05 05:04:32;;;;;;;1.90;1.60;;;;;;;;;;4465068;28;20078;-60
2022/10/05 05:06:53;;;;;;;;;;;;;;;;;;4478434;28;20030;-60
2022/10/05 05:09:10;;;;;;;2.42;1.60;;;;;;;;;;4468525;28;19933;-60
2022/10/05 05:11:24;;;;;;;2.15;1.80;;;;;;;;;;4474894;28;20035;-60
2022/10/05 05:13:57;;;;;;;2.83;1.83;;;;;;;;;;4484126;28;20407;-60
2022/10/05 05:16:32;;;;;;;2.55;1.80;;;;;;;;;;4475712;28;20074;-60
2022/10/05 05:19:09;;;;;;;2.50;1.80;;;;;;;;;;4464433;28;21001;-60
2022/10/05 05:21:28;;;;;;;3.53;1.90;;;;;;;;;;4482247;28;20654;-61
2022/10/05 05:24:04;;;;;;;2.25;1.60;;;;;;;;;;4485110;28;20085;-60
2022/10/05 05:26:52;;;;;;;2.33;1.70;;;;;;;;;;4484863;28;20634;-60
2022/10/05 05:29:04;;;;;;;;;;;;;;;;;;4474690;28;20050;-60
2022/10/05 05:31:27;;;;;;;2.03;1.83;;;;;;;;;;4485234;28;20374;-59
2022/10/05 05:33:57;;;;;;;2.30;1.90;;;;;;;;;;4468344;28;20039;-60
2022/10/05 05:36:31;;;;;;;2.92;2.00;;;;;;;;;;4492220;28;20502;-60
2022/10/05 05:39:15;;;;;;;2.15;1.80;;;;;;;;;;4484132;28;20129;-60
2022/10/05 05:41:36;;;;;;;3.38;1.90;;;;;;;;;;4467938;28;20812;-60
2022/10/05 05:44:15;;;;;;;2.55;1.88;;;;;;;;;;4459933;28;20083;-61
2022/10/05 05:46:39;;;;;;;2.30;1.80;;;;;;;;;;4473586;28;20070;-61
2022/10/05 05:48:51;;;;;;;2.15;1.75;;;;;;;;;;4459144;28;20101;-58
2022/10/05 05:51:08;;;;;;;2.40;1.83;;;;;;;;;;4473381;28;20041;-58
2022/10/05 05:53:39;;;;;;;2.30;1.77;;;;;;;;;;4467605;28;20101;-58
2022/10/05 05:56:13;;;;;;;2.45;1.90;;;;;;;;;;4465720;28;20158;-58
2022/10/05 05:58:46;;;;;;;2.72;1.95;;;;;;;;;;4467484;28;20035;-59
2022/10/05 06:01:01;;;;;;;2.28;1.77;;;;;;;;;;4475982;28;20086;-58
2022/10/05 06:03:30;;;;;;;2.10;1.80;;;;;;;;;;4480206;28;20034;-58
2022/10/05 06:05:51;;;;;;;2.20;1.80;;;;;;;;;;4483863;28;20205;-58
2022/10/05 06:08:15;;;;;;;3.30;2.00;;;;;;;;;;4473508;28;20034;-58
2022/10/05 06:10:34;;;;;;;2.42;2.00;;;;;;;;;;4462164;28;20043;-58
2022/10/05 06:12:51;;;;;;;2.45;1.83;;;;;;;;;;4483712;28;20157;-58
2022/10/05 06:15:37;;;;;;;2.20;1.90;;;;;;;;;;4466207;28;20133;-58
2022/10/05 06:17:51;;;;;;;2.95;2.10;;;;;;;;;;4459258;28;20157;-58
2022/10/05 06:20:08;;;;;;;2.53;1.95;;;;;;;;;;4481049;28;20108;-58
2022/10/05 06:22:24;;;;;;;2.15;1.75;;;;;;;;;;4462040;28;20529;-59
2022/10/05 06:24:39;;;;;;;3.77;2.00;;;;;;;;;;4477487;28;20034;-58
2022/10/05 06:27:07;;;;;;;2.75;1.80;;;;;;;;;;4484535;28;20296;-59
2022/10/05 06:29:22;;;;;;;2.40;1.75;;;;;;;;;;4484546;28;20563;-58
2022/10/05 06:31:44;;;;;;;2.00;1.60;;;;;;;;;;4468149;28;21688;-60
2022/10/05 06:33:58;;;;;;;3.60;1.90;;;;;;;;;;4480574;28;20038;-60
2022/10/05 06:36:27;;;;;;;2.10;1.70;;;;;;;;;;4479586;28;20030;-60
2022/10/05 06:38:49;;;;;;;2.08;1.65;;;;;;;;;;4476874;28;20211;-60
2022/10/05 06:41:22;;;;;;;2.60;1.80;;;;;;;;;;4475793;28;20031;-60
2022/10/05 06:43:53;;;;;;;2.65;2.03;;;;;;;;;;4478692;28;20034;-60
2022/10/05 06:46:31;;;;;;;2.72;1.90;;;;;;;;;;4482427;28;20042;-60
2022/10/05 06:49:20;;;;;;;2.38;1.80;;;;;;;;;;4456292;28;20081;-60
2022/10/05 06:51:55;;;;;;;3.90;2.00;;;;;;;;;;4474147;28;20038;-59
2022/10/05 06:54:21;;;;;;;2.10;1.80;;;;;;;;;;4475664;28;20149;-59
2022/10/05 06:56:40;;;;;;;2.10;1.75;;;;;;;;;;4459518;28;20700;-59
2022/10/05 06:59:10;;;;;;;2.85;1.90;;;;;;;;;;4483452;28;20040;-60
2022/10/05 07:01:42;;;;;;;2.05;1.52;;;;;;;;;;4476968;28;20039;-60
2022/10/05 07:03:57;;;;;;;2.75;1.90;;;;;;;;;;4483193;28;20069;-59
2022/10/05 07:06:35;;;;;;;2.95;1.98;;;;;;;;;;4450211;28;20177;-59
2022/10/05 07:09:04;;;;;;;2.38;1.80;;;;;;;;;;4490163;28;20135;-60
2022/10/05 07:11:26;;;;;;;2.30;2.00;;;;;;;;;;4483454;28;20074;-60
2022/10/05 07:14:01;;;;;;;3.55;2.20;;;;;;;;;;4473490;28;20046;-60
2022/10/05 07:16:30;;;;;;;2.72;1.88;;;;;;;;;;4490078;28;20064;-60
2022/10/05 07:19:09;;;;;;;2.80;2.00;;;;;;;;;;4475842;28;20042;-59
2022/10/05 07:21:46;;;;;;;2.88;1.90;;;;;;;;;;4488982;28;20161;-59
2022/10/05 07:24:04;;;;;;;2.70;2.00;;;;;;;;;;4460857;28;20081;-60
2022/10/05 07:26:33;;;;;;;2.28;2.00;;;;;;;;;;4475958;28;20031;-59
2022/10/05 07:28:47;;;;;;;2.53;2.10;;;;;;;;;;4482823;28;20046;-59
2022/10/05 07:31:01;;;;;;;2.20;1.85;;;;;;;;;;4471558;28;20359;-59
2022/10/05 07:33:46;;;;;;;2.47;1.92;;;;;;;;;;4476172;28;20038;-59
2022/10/05 07:39:16;;;;;;;2.42;2.00;;;;;;;;;;4478013;28;20042;-59
2022/10/05 07:41:46;;;;;;;2.10;1.70;;;;;;;;;;4460399;28;20649;-59
2022/10/05 07:44:11;;;;;;;2.80;2.00;;;;;;;;;;4475684;28;20035;-60
2022/10/05 07:46:47;;;;;;;2.25;1.88;;;;;;;;;;4489750;28;20049;-60
2022/10/05 07:49:06;;;;;;;2.75;1.92;;;;;;;;;;4474202;28;20856;-59
2022/10/05 07:51:26;;;;;;;1.95;1.75;;;;;;;;;;4482872;28;20030;-59
2022/10/05 07:53:40;;;;;;;2.58;1.90;;;;;;;;;;4480475;28;20034;-60
2022/10/05 07:55:53;;;;;;;2.10;1.80;;;;;;;;;;4460895;28;20070;-59
2022/10/05 07:58:30;;;;;;;2.30;1.60;;;;;;;;;;4458386;28;20031;-59
2022/10/05 08:01:07;;;;;;;2.15;1.63;;;;;;;;;;4475668;28;20069;-60
2022/10/05 08:03:37;;;;;;;1.80;1.50;;;;;;;;;;4442525;28;20139;-60
2022/10/05 08:05:48;;;;;;;2.42;1.92;;;;;;;;;;4493132;28;20583;-59
2022/10/05 08:08:03;;;;;;;2.13;1.67;;;;;;;;;;4491668;28;20171;-60
2022/10/05 08:10:34;;;;;;;2.60;1.77;;;;;;;;;;4482749;28;20027;-60
2022/10/05 08:13:15;;;;;;;2.28;1.55;;;;;;;;;;4494839;28;20042;-59
2022/10/05 08:15:47;;;;;;;1.80;1.40;;;;;;;;;;4482105;28;20579;-59
2022/10/05 08:18:01;;;;;;;2.17;1.40;;;;;;;;;;4478059;28;20050;-59
2022/10/05 08:20:24;;;;;;;2.08;1.60;;;;;;;;;;4478277;28;20618;-59
2022/10/05 08:22:45;;;;;;;2.05;1.75;;;;;;;;;;4480476;28;20185;-60
2022/10/05 08:25:01;;;;;;;2.65;1.75;;;;;;;;;;4481443;28;20109;-59
2022/10/05 08:27:19;;;;;;;1.90;1.65;;;;;;;;;;4482510;28;20125;-60
2022/10/05 08:29:34;;;;;;;2.20;1.58;;;;;;;;;;4481500;28;20564;-61
2022/10/05 08:31:47;;;;;;;1.77;1.67;;;;;;;;;;4480317;28;20035;-60
2022/10/05 08:34:11;;;;;;;2.03;1.40;;;;;;;;;;4477350;28;20186;-63
2022/10/05 08:36:37;;;;;;;1.90;1.58;;;;;;;;;;4478981;28;20077;-62
2022/10/05 08:38:50;;;;;;;1.55;1.38;;;;;;;;;;4492886;28;20037;-59
2022/10/05 08:41:10;;;;;;;1.55;1.40;;;;;;;;;;4479918;28;32406;-61
2022/10/05 08:43:35;;;;;;;1.80;1.55;;;;;;;;;;4493684;28;20090;-59
2022/10/05 08:46:07;;;;;;;1.70;1.42;;;;;;;;;;4477352;28;20023;-58
2022/10/05 08:48:27;;;;;;;1.60;1.50;;;;;;;;;;4475976;28;20583;-57
2022/10/05 08:50:52;;;;;;;2.25;1.40;;;;;;;;;;4481444;28;20043;-59
2022/10/05 08:53:28;;;;;;;1.77;1.40;;;;;;;;;;4479067;28;20126;-58
2022/10/05 08:55:51;;;;;;;1.48;1.30;;;;;;;;;;4493881;28;20069;-59
2022/10/05 08:58:32;;;;;;;1.33;1.23;;;;;;;;;;4493702;28;20064;-57
2022/10/05 09:00:46;;;;;;;1.40;1.10;;;;;;;;;;4481589;28;20073;-58
2022/10/05 09:03:10;;;;;;;1.70;1.30;;;;;;;;;;4494102;28;20026;-57
2022/10/05 09:05:44;;;;;;;1.42;1.30;;;;;;;;;;4481659;28;20836;-58
2022/10/05 09:08:13;;;;;;;1.98;1.10;;;;;;;;;;4495022;28;20058;-58
2022/10/05 09:10:44;;;;;;;1.60;1.27;;;;;;;;;;4492510;28;20074;-58
2022/10/05 09:13:12;;;;;;;1.23;0.85;;;;;;;;;;4480806;28;20041;-58
2022/10/05 09:15:46;;;;;;;1.30;1.20;;;;;;;;;;4495081;28;20100;-58
2022/10/05 09:18:02;;;;;;;1.58;1.20;;;;;;;;;;4493596;28;20042;-65
2022/10/05 09:20:31;;;;;;;1.83;1.15;;;;;;;;;;4492753;28;20029;-62
2022/10/05 09:23:01;;;;;;;1.88;1.20;;;;;;;;;;4475697;28;20039;-56
2022/10/05 09:25:21;;;;;;;1.67;1.40;;;;;;;;;;4493524;28;20039;-56
2022/10/05 09:27:36;;;;;;;1.52;1.10;;;;;;;;;;4467787;28;20035;-55
2022/10/05 09:30:03;;;;;;;1.25;1.00;;;;;;;;;;4478350;28;20161;-54
2022/10/05 09:32:41;;;;;;;1.35;1.20;;;;;;;;;;4477110;28;20598;-54
2022/10/05 09:35:00;;;;;;;1.50;1.30;;;;;;;;;;4480601;28;20509;-55
2022/10/05 09:37:20;;;;;;;1.35;1.08;;;;;;;;;;4477930;28;20996;-56
2022/10/05 09:40:03;;;;;;;2.10;1.10;;;;;;;;;;4490693;28;20803;-58
2022/10/05 09:42:34;;;;;;;1.45;1.10;;;;;;;;;;4469226;28;20049;-58
2022/10/05 09:45:01;;;;;;;1.30;1.10;;;;;;;;;;4481687;28;20092;-58
2022/10/05 09:47:15;;;;;;;1.50;1.30;;;;;;;;;;4484805;28;20034;-58
2022/10/05 09:49:44;;;;;;;1.20;1.10;;;;;;;;;;4478372;28;20042;-58
2022/10/05 09:52:09;;;;;;;1.27;1.17;;;;;;;;;;4493269;28;20870;-58
2022/10/05 09:55:01;;;;;;;1.40;1.30;;;;;;;;;;4474316;28;20156;-58
2022/10/05 09:57:46;;;;;;;1.20;1.10;;;;;;;;;;4492917;28;20038;-58
2022/10/05 10:00:15;;;;;;;1.50;1.02;;;;;;;;;;4494045;28;20042;-58
2022/10/05 10:03:03;;;;;;;1.80;1.10;;;;;;;;;;4494739;28;20030;-58
2022/10/05 10:05:25;;;;;;;1.55;1.13;;;;;;;;;;4475723;28;20038;-58
2022/10/05 10:07:51;;;;;;;1.50;1.40;;;;;;;;;;4480651;28;20141;-59
2022/10/05 10:10:05;;;;;;;2.65;1.30;;;;;;;;;;4491924;28;20041;-59
2022/10/05 10:12:45;;;;;;;1.40;1.30;;;;;;;;;;4494036;28;20165;-58
2022/10/05 10:15:12;;;;;;;1.52;1.42;;;;;;;;;;4493855;28;20046;-58
2022/10/05 10:17:35;;;;;;;1.88;1.33;;;;;;;;;;4476554;28;20074;-58
2022/10/05 10:19:55;;;;;;;2.10;1.20;;;;;;;;;;4480318;28;20045;-58
2022/10/05 10:22:21;;;;;;;1.20;1.10;;;;;;;;;;4490969;28;20072;-58
2022/10/05 10:24:58;;;;;;;1.20;1.08;;;;;;;;;;4479632;28;20538;-59
2022/10/05 10:27:28;;;;;;;2.72;1.38;;;;;;;;;;4492361;28;20042;-58
2022/10/05 10:29:42;;;;;;;2.00;1.20;;;;;;;;;;4492370;28;20038;-58
2022/10/05 10:32:11;;;;;;;1.30;1.13;;;;;;;;;;4492827;28;20508;-58
2022/10/05 10:34:54;;;;;;;1.10;1.00;;;;;;;;;;4491839;28;20038;-58
2022/10/05 10:37:23;;;;;;;1.25;1.10;;;;;;;;;;4458396;28;20039;-58
2022/10/05 10:39:55;;;;;;;1.40;1.20;;;;;;;;;;4492336;28;20038;-58
2022/10/05 10:42:24;;;;;;;1.80;1.20;;;;;;;;;;4491220;28;20043;-59
2022/10/05 10:44:57;;;;;;;1.17;1.08;;;;;;;;;;4491373;28;20626;-58
2022/10/05 10:47:30;;;;;;;1.20;1.00;;;;;;;;;;4493620;28;21393;-58
2022/10/05 10:50:05;;;;;;;2.25;1.00;;;;;;;;;;4479632;28;20047;-59
2022/10/05 10:52:40;;;;;;;1.25;0.80;;;;;;;;;;4491227;28;20038;-58
2022/10/05 10:55:23;;;;;;;1.10;0.90;;;;;;;;;;4479494;28;20352;-58
2022/10/05 10:57:45;;;;;;;0.82;0.80;;;;;;;;;;4478676;28;20126;-59
2022/10/05 11:00:19;;;;;;;0.90;0.90;;;;;;;;;;4491673;28;20061;-59
2022/10/05 11:02:51;;;;;;;1.08;0.98;;;;;;;;;;4480683;28;20595;-58
2022/10/05 11:05:34;;;;;;;0.93;0.80;;;;;;;;;;4492555;28;20145;-59
2022/10/05 11:08:01;;;;;;;0.80;0.70;;;;;;;;;;4464887;28;20046;-59
2022/10/05 11:10:57;;;;;;;0.93;0.80;;;;;;;;;;4477325;28;20059;-59
2022/10/05 11:13:26;;;;;;;1.58;0.90;;;;;;;;;;4471268;28;20045;-59
2022/10/05 11:16:07;;;;;;;0.80;0.80;;;;;;;;;;4492806;28;20052;-59
2022/10/05 11:18:40;;;;;;;0.80;0.80;;;;;;;;;;4491087;28;20041;-58
2022/10/05 11:21:03;;;;;;;0.95;0.70;;;;;;;;;;4492765;28;20050;-58
2022/10/05 11:23:32;;;;;;;0.80;0.80;;;;;;;;;;4483195;28;20161;-59
2022/10/05 11:26:15;;;;;;;1.08;0.80;;;;;;;;;;4490821;28;20069;-58
2022/10/05 11:28:56;;;;;;;1.38;0.88;;;;;;;;;;4441572;28;20051;-58
2022/10/05 11:31:29;;;;;;;0.63;0.63;;;;;;;;;;4491486;28;20045;-59
2022/10/05 11:33:43;;;;;;;1.00;0.90;;;;;;;;;;4478800;28;20043;-58
2022/10/05 11:36:21;;;;;;;0.80;0.80;;;;;;;;;;4490768;28;20036;-59
2022/10/05 11:39:03;;;;;;;1.17;1.00;;;;;;;;;;4490431;28;20030;-58
2022/10/05 11:41:35;;;;;;;1.15;0.80;;;;;;;;;;4490435;28;20038;-58
2022/10/05 11:44:08;;;;;;;1.92;0.90;;;;;;;;;;4489272;28;20065;-58
2022/10/05 11:46:27;;;;;;;0.88;0.70;;;;;;;;;;4477737;28;20043;-58
2022/10/05 11:48:43;;;;;;;0.80;0.80;;;;;;;;;;4490420;28;20873;-58
2022/10/05 11:51:27;;;;;;;0.80;0.80;;;;;;;;;;4472221;28;20060;-58
2022/10/05 11:53:42;;;;;;;0.80;0.80;;;;;;;;;;4453578;28;20050;-58
2022/10/05 11:56:40;;;;;;;1.30;0.90;;;;;;;;;;4472089;28;20025;-58
2022/10/05 11:58:56;;;;;;;1.10;0.90;;;;;;;;;;4430063;28;20070;-57
2022/10/05 12:01:28;;;;;;;1.13;0.90;;;;;;;;;;4474592;28;20057;-58
2022/10/05 12:03:46;;;;;;;0.98;0.88;;;;;;;;;;4482841;28;20042;-58
2022/10/05 12:06:00;;;;;;;1.10;0.80;;;;;;;;;;4491276;28;20038;-58
2022/10/05 12:08:47;;;;;;;0.80;0.80;;;;;;;;;;4492531;28;20765;-58
2022/10/05 12:11:06;;;;;;;1.02;0.93;;;;;;;;;;4490228;28;20043;-58
2022/10/05 12:13:42;;;;;;;0.82;0.70;;;;;;;;;;4491295;28;20176;-58
2022/10/05 12:16:04;;;;;;;1.08;0.80;;;;;;;;;;4490524;28;20144;-58
2022/10/05 12:18:30;;;;;;;0.80;0.80;;;;;;;;;;4473028;28;20043;-58
2022/10/05 12:21:05;;;;;;;2.15;1.00;;;;;;;;;;4490574;28;20042;-58
2022/10/05 12:23:20;;;;;;;0.80;0.80;;;;;;;;;;4492040;28;20077;-59
2022/10/05 12:25:44;;;;;;;0.80;0.80;;;;;;;;;;4491198;28;20034;-59
2022/10/05 12:28:03;;;;;;;0.98;0.88;;;;;;;;;;4482212;28;20812;-58
2022/10/05 12:30:29;;;;;;;1.25;0.82;;;;;;;;;;4477660;28;20047;-58
2022/10/05 12:33:07;;;;;;;1.23;0.85;;;;;;;;;;4489382;28;20630;-59
2022/10/05 12:35:41;;;;;;;1.27;0.80;;;;;;;;;;4475416;28;20034;-58
2022/10/05 12:37:54;;;;;;;1.00;0.90;;;;;;;;;;4491176;28;20039;-59
2022/10/05 12:40:15;;;;;;;0.88;0.80;;;;;;;;;;4491104;28;20125;-58
2022/10/05 12:42:58;;;;;;;0.90;0.75;;;;;;;;;;4490262;28;20061;-58
2022/10/05 12:45:17;;;;;;;1.00;0.88;;;;;;;;;;4413711;28;20111;-58
2022/10/05 12:47:41;;;;;;;0.98;0.90;;;;;;;;;;4491583;28;20046;-58
2022/10/05 12:50:14;;;;;;;1.00;0.90;;;;;;;;;;4490223;28;20125;-59
2022/10/05 12:52:43;;;;;;;1.40;0.80;;;;;;;;;;4456792;28;20047;-59
2022/10/05 12:55:05;;;;;;;0.85;0.80;;;;;;;;;;4479923;28;20594;-58
2022/10/05 12:57:49;;;;;;;1.10;0.90;;;;;;;;;;4477085;28;20138;-58
2022/10/05 13:00:11;;;;;;;1.13;0.77;;;;;;;;;;4473722;28;20137;-58
2022/10/05 13:02:45;;;;;;;0.85;0.85;;;;;;;;;;4481176;28;20027;-58
2022/10/05 13:05:12;;;;;;;0.98;0.88;;;;;;;;;;4493706;28;20045;-58
2022/10/05 13:07:50;;;;;;;1.00;0.70;;;;;;;;;;4492741;28;20108;-58
2022/10/05 13:10:23;;;;;;;0.80;0.70;;;;;;;;;;4493244;28;20046;-58
2022/10/05 13:13:09;;;;;;;0.70;0.70;;;;;;;;;;4492916;28;20979;-58
2022/10/05 13:15:30;;;;;;;0.70;0.70;;;;;;;;;;4480856;28;20137;-58
2022/10/05 13:18:08;;;;;;;1.35;0.80;;;;;;;;;;4476926;28;20030;-59
2022/10/05 13:20:22;;;;;;;0.70;0.70;;;;;;;;;;4493180;28;20037;-59
2022/10/05 13:22:39;;;;;;;0.80;0.80;;;;;;;;;;4492215;28;21345;-58
2022/10/05 13:24:59;;;;;;;1.15;0.80;;;;;;;;;;4475020;28;20034;-59
2022/10/05 13:27:21;;;;;;;1.67;0.93;;;;;;;;;;4475238;28;20043;-58
2022/10/05 13:29:49;;;;;;;0.90;0.70;;;;;;;;;;4477010;28;20554;-58
2022/10/05 13:32:05;;;;;;;0.82;0.80;;;;;;;;;;4481775;28;20038;-59
2022/10/05 13:34:40;;;;;;;0.90;0.80;;;;;;;;;;4480183;28;20039;-59
2022/10/05 13:36:59;;;;;;;0.60;0.60;;;;;;;;;;4491885;28;20034;-63
2022/10/05 13:39:27;;;;;;;0.82;0.82;;;;;;;;;;4479245;28;20046;-60
2022/10/05 13:41:55;;;;;;;0.60;0.60;;;;;;;;;;4481549;28;20150;-59
2022/10/05 13:44:24;;;;;;;1.02;0.80;;;;;;;;;;4478636;28;20640;-59
2022/10/05 13:47:03;;;;;;;0.63;0.60;;;;;;;;;;4493044;28;20564;-62
2022/10/05 13:49:28;;;;;;;0.75;0.70;;;;;;;;;;4491949;28;21265;-59
2022/10/05 13:51:42;;;;;;;0.90;0.80;;;;;;;;;;4485069;28;20043;-58
2022/10/05 13:54:03;;;;;;;1.02;0.80;;;;;;;;;;4494773;28;20042;-58
2022/10/05 13:56:24;;;;;;;0.75;0.70;;;;;;;;;;4492290;28;20041;-58
2022/10/05 13:58:46;;;;;;;0.77;0.77;;;;;;;;;;4478074;28;20487;-58
2022/10/05 14:01:00;;;;;;;0.68;0.68;;;;;;;;;;4493630;28;20046;-59
2022/10/05 14:03:33;;;;;;;0.93;0.70;;;;;;;;;;4492950;28;20038;-59
2022/10/05 14:05:53;;;;;;;0.77;0.70;;;;;;;;;;4491824;28;20509;-59
2022/10/05 14:08:03;;;;;;;1.35;0.65;;;;;;;;;;4492028;28;20136;-58
2022/10/05 14:10:37;;;;;;;0.80;0.80;;;;;;;;;;4494526;28;20137;-59
2022/10/05 14:12:53;;;;;;;1.30;0.80;;;;;;;;;;4491118;28;20728;-58
2022/10/05 14:15:18;;;;;;;0.93;0.70;;;;;;;;;;4480841;28;20058;-58
2022/10/05 14:17:32;;;;;;;1.13;0.73;;;;;;;;;;4478463;28;20705;-59
2022/10/05 14:19:46;;;;;;;0.77;0.70;;;;;;;;;;4491638;28;20522;-58
2022/10/05 14:22:10;;;;;;;1.02;0.80;;;;;;;;;;4474771;28;20030;-59
2022/10/05 14:24:31;;;;;;;0.57;0.57;;;;;;;;;;4483710;28;20026;-58
2022/10/05 14:26:50;;;;;;;1.10;0.68;;;;;;;;;;4478480;28;20058;-59
2022/10/05 14:29:12;;;;;;;0.68;0.63;;;;;;;;;;4479801;28;20654;-58
2022/10/05 14:31:34;;;;;;;0.70;0.70;;;;;;;;;;4493076;28;20042;-59
2022/10/05 14:33:45;;;;;;;0.90;0.80;;;;;;;;;;4491398;28;20063;-58
2022/10/05 14:35:56;;;;;;;1.58;0.73;;;;;;;;;;4474345;28;20143;-58